createdAt,value
2018-08-04T00:01:33.054Z,99.90
2018-08-04T00:04:01.516Z,99.90
2018-08-04T00:06:33.074Z,99.90
2018-08-04T00:09:01.584Z,99.90
2018-08-04T00:11:29.977Z,99.90
2018-08-04T00:13:58.377Z,99.90
2018-08-04T00:16:26.909Z,99.90
2018-08-04T00:18:55.362Z,99.90
2018-08-04T00:21:23.730Z,99.90
2018-08-04T00:23:52.431Z,99.90
2018-08-04T00:26:20.884Z,99.90
2018-08-04T00:28:49.321Z,99.90
2018-08-04T00:31:17.624Z,99.90
2018-08-04T00:33:46.064Z,99.90
2018-08-04T00:36:14.518Z,99.90
2018-08-04T00:38:42.902Z,99.90
2018-08-04T00:41:11.264Z,99.90
2018-08-04T00:43:39.684Z,99.90
2018-08-04T00:46:08.134Z,99.90
2018-08-04T00:48:36.543Z,99.90
2018-08-04T00:51:05.045Z,99.90
2018-08-04T00:53:33.422Z,99.90
2018-08-04T00:56:01.872Z,99.90
2018-08-04T00:58:30.272Z,99.90
2018-08-04T01:00:58.854Z,99.90
2018-08-04T01:03:27.232Z,99.90
2018-08-04T01:05:55.837Z,99.90
2018-08-04T01:08:24.238Z,99.90
2018-08-04T01:10:52.650Z,99.90
2018-08-04T01:13:21.010Z,99.90
2018-08-04T01:15:49.374Z,99.90
2018-08-04T01:18:17.806Z,99.90
2018-08-04T01:20:46.199Z,99.90
2018-08-04T01:23:14.549Z,99.90
2018-08-04T01:25:43.033Z,99.90
2018-08-04T01:28:11.375Z,99.90
2018-08-04T01:30:39.800Z,99.90
2018-08-04T01:33:08.219Z,99.90
2018-08-04T01:35:36.679Z,99.90
2018-08-04T01:38:05.079Z,99.90
2018-08-04T01:40:33.437Z,99.90
2018-08-04T01:43:01.919Z,99.90
2018-08-04T01:45:30.310Z,99.90
2018-08-04T01:47:58.723Z,99.90
2018-08-04T01:50:27.172Z,99.90
2018-08-04T01:52:55.534Z,99.90
2018-08-04T01:55:24.025Z,99.90
2018-08-04T01:57:52.397Z,99.90
2018-08-04T02:00:20.828Z,99.90
2018-08-04T02:02:49.204Z,99.90
2018-08-04T02:05:17.544Z,99.90
2018-08-04T02:07:45.924Z,99.90
2018-08-04T02:10:14.236Z,99.90
2018-08-04T02:12:42.565Z,99.90
2018-08-04T02:15:10.854Z,99.90
2018-08-04T02:17:39.235Z,99.90
2018-08-04T02:20:07.657Z,99.90
2018-08-04T02:22:36.065Z,99.90
2018-08-04T02:25:05.570Z,99.90
2018-08-04T02:27:33.989Z,99.90
2018-08-04T02:30:02.873Z,99.90
2018-08-04T02:32:31.329Z,99.90
2018-08-04T02:34:59.753Z,99.90
2018-08-04T02:37:28.136Z,99.90
2018-08-04T02:39:56.596Z,99.90
2018-08-04T02:42:25.051Z,99.90
2018-08-04T02:44:53.368Z,99.90
2018-08-04T02:47:21.752Z,99.90
2018-08-04T02:49:50.159Z,99.90
2018-08-04T02:52:18.537Z,99.90
2018-08-04T02:54:46.995Z,99.90
2018-08-04T02:57:15.369Z,99.90
2018-08-04T02:59:43.809Z,99.90
2018-08-04T03:02:12.327Z,99.90
2018-08-04T03:04:40.705Z,99.90
2018-08-04T03:07:09.183Z,99.90
2018-08-04T03:09:37.687Z,99.90
2018-08-04T03:12:06.300Z,99.90
2018-08-04T03:14:34.695Z,99.90
2018-08-04T03:17:03.128Z,99.90
2018-08-04T03:19:31.559Z,99.90
2018-08-04T03:22:00.002Z,99.90
2018-08-04T03:24:28.353Z,99.90
2018-08-04T03:26:56.746Z,99.90
2018-08-04T03:29:25.214Z,99.90
2018-08-04T03:31:53.642Z,99.90
2018-08-04T03:34:22.097Z,99.90
2018-08-04T03:36:50.541Z,99.90
2018-08-04T03:39:18.983Z,99.90
2018-08-04T03:41:47.420Z,99.90
2018-08-04T03:44:15.866Z,99.90
2018-08-04T03:46:44.348Z,99.90
2018-08-04T03:49:12.733Z,99.90
2018-08-04T03:51:41.159Z,99.90
2018-08-04T03:54:09.588Z,99.90
2018-08-04T03:56:37.949Z,99.90
2018-08-04T03:59:06.391Z,99.90
2018-08-04T04:01:34.863Z,99.90
2018-08-04T04:04:03.219Z,99.90
2018-08-04T04:06:31.634Z,99.90
2018-08-04T04:09:00.096Z,99.90
2018-08-04T04:11:28.456Z,99.90
2018-08-04T04:13:56.863Z,99.90
2018-08-04T04:16:25.417Z,99.90
2018-08-04T04:18:53.889Z,99.90
2018-08-04T04:21:22.246Z,99.90
2018-08-04T04:23:50.611Z,99.90
2018-08-04T04:26:19.113Z,99.90
2018-08-04T04:28:47.562Z,99.90
2018-08-04T04:31:16.021Z,99.90
2018-08-04T04:33:44.487Z,99.90
2018-08-04T04:36:12.959Z,99.90
2018-08-04T04:38:41.383Z,99.90
2018-08-04T04:41:09.835Z,99.90
2018-08-04T04:43:38.289Z,99.90
2018-08-04T04:46:06.717Z,99.90
2018-08-04T04:48:35.151Z,99.90
2018-08-04T04:51:03.548Z,99.90
2018-08-04T04:53:32.000Z,99.90
2018-08-04T04:56:00.493Z,99.90
2018-08-04T04:58:28.859Z,99.90
2018-08-04T05:00:57.254Z,99.90
2018-08-04T05:03:25.588Z,99.90
2018-08-04T05:05:54.084Z,99.90
2018-08-04T05:08:22.480Z,99.90
2018-08-04T05:10:50.830Z,99.90
2018-08-04T05:13:19.241Z,99.90
2018-08-04T05:15:47.612Z,99.90
2018-08-04T05:18:16.059Z,99.90
2018-08-04T05:20:44.482Z,99.90
2018-08-04T05:23:12.903Z,99.90
2018-08-04T05:25:41.348Z,99.90
2018-08-04T05:28:09.782Z,99.90
2018-08-04T05:30:38.117Z,99.90
2018-08-04T05:33:06.638Z,99.90
2018-08-04T05:35:35.021Z,99.90
2018-08-04T05:38:03.458Z,99.90
2018-08-04T05:40:31.854Z,99.90
2018-08-04T05:43:00.364Z,99.90
2018-08-04T05:45:28.788Z,99.90
2018-08-04T05:47:57.304Z,99.90
2018-08-04T05:50:25.705Z,99.90
2018-08-04T05:52:54.037Z,99.90
2018-08-04T05:55:22.509Z,99.90
2018-08-04T05:57:50.960Z,99.90
2018-08-04T06:00:19.413Z,99.90
2018-08-04T06:02:47.895Z,99.90
2018-08-04T06:05:16.311Z,99.90
2018-08-04T06:07:44.782Z,99.90
2018-08-04T06:10:13.181Z,99.10
2018-08-04T06:12:41.661Z,97.60
2018-08-04T06:15:10.092Z,95.70
2018-08-04T06:17:38.668Z,93.70
2018-08-04T06:20:07.139Z,92.80
2018-08-04T06:22:35.569Z,91.90
2018-08-04T06:25:04.091Z,91.30
2018-08-04T06:27:32.435Z,90.90
2018-08-04T06:30:00.917Z,90.80
2018-08-04T06:32:29.395Z,90.70
2018-08-04T06:34:57.822Z,90.00
2018-08-04T06:37:26.242Z,89.50
2018-08-04T06:39:54.870Z,89.70
2018-08-04T06:42:23.466Z,88.30
2018-08-04T06:44:51.917Z,87.20
2018-08-04T06:47:20.305Z,86.00
2018-08-04T06:49:48.679Z,86.50
2018-08-04T06:52:17.155Z,87.90
2018-08-04T06:54:45.513Z,87.40
2018-08-04T06:57:13.981Z,86.00
2018-08-04T06:59:42.379Z,86.00
2018-08-04T07:02:10.821Z,86.00
2018-08-04T07:04:39.224Z,87.80
2018-08-04T07:07:08.274Z,88.10
2018-08-04T07:09:36.705Z,89.70
2018-08-04T07:12:05.209Z,88.10
2018-08-04T07:14:33.655Z,87.70
2018-08-04T07:17:02.173Z,88.60
2018-08-04T07:19:30.650Z,88.80
2018-08-04T07:21:59.092Z,89.10
2018-08-04T07:24:27.465Z,87.90
2018-08-04T07:26:55.838Z,87.80
2018-08-04T07:29:24.326Z,87.50
2018-08-04T07:31:52.837Z,86.90
2018-08-04T07:34:21.395Z,86.70
2018-08-04T07:36:49.702Z,86.30
2018-08-04T07:39:18.119Z,86.40
2018-08-04T07:41:46.530Z,86.70
2018-08-04T07:44:14.925Z,85.00
2018-08-04T07:46:43.369Z,84.70
2018-08-04T07:49:11.787Z,85.10
2018-08-04T07:51:40.170Z,86.20
2018-08-04T07:54:08.539Z,84.70
2018-08-04T07:56:37.017Z,85.50
2018-08-04T07:59:05.441Z,86.40
2018-08-04T08:01:33.955Z,84.60
2018-08-04T08:04:02.285Z,85.70
2018-08-04T08:06:30.685Z,84.70
2018-08-04T08:08:59.127Z,85.30
2018-08-04T08:11:27.683Z,85.50
2018-08-04T08:13:56.027Z,85.40
2018-08-04T08:16:24.409Z,85.00
2018-08-04T08:18:52.902Z,84.00
2018-08-04T08:21:21.339Z,83.80
2018-08-04T08:23:49.750Z,83.60
2018-08-04T08:26:18.235Z,80.40
2018-08-04T08:28:47.398Z,82.90
2018-08-04T08:31:15.851Z,83.10
2018-08-04T08:33:44.295Z,82.70
2018-08-04T08:36:12.773Z,82.50
2018-08-04T08:38:41.203Z,82.80
2018-08-04T08:41:09.664Z,81.70
2018-08-04T08:43:38.089Z,82.70
2018-08-04T08:46:06.553Z,82.10
2018-08-04T08:48:34.968Z,83.10
2018-08-04T08:51:03.358Z,83.00
2018-08-04T08:53:32.040Z,83.00
2018-08-04T08:56:00.207Z,82.20
2018-08-04T08:58:28.705Z,78.90
2018-08-04T09:00:57.027Z,78.80
2018-08-04T09:03:25.344Z,80.40
2018-08-04T09:05:53.766Z,80.10
2018-08-04T09:08:22.202Z,80.50
2018-08-04T09:10:50.655Z,80.00
2018-08-04T09:13:19.054Z,81.00
2018-08-04T09:15:47.546Z,79.00
2018-08-04T09:18:15.925Z,80.00
2018-08-04T09:20:44.371Z,79.00
2018-08-04T09:23:12.799Z,78.90
2018-08-04T09:25:41.195Z,75.60
2018-08-04T09:28:09.659Z,73.00
2018-08-04T09:30:38.100Z,73.20
2018-08-04T09:33:06.946Z,73.70
2018-08-04T09:35:35.334Z,72.10
2018-08-04T09:38:03.750Z,71.70
2018-08-04T09:40:32.744Z,69.60
2018-08-04T09:43:01.125Z,72.10
2018-08-04T09:45:29.523Z,70.80
2018-08-04T09:47:57.937Z,70.00
2018-08-04T09:50:26.387Z,67.90
2018-08-04T09:52:55.614Z,67.70
2018-08-04T09:55:24.018Z,66.10
2018-08-04T09:57:52.404Z,69.20
2018-08-04T10:00:26.157Z,65.80
2018-08-04T10:02:54.531Z,64.30
2018-08-04T10:05:23.258Z,65.70
2018-08-04T10:07:51.639Z,65.00
2018-08-04T10:10:20.011Z,65.60
2018-08-04T10:12:48.510Z,63.60
2018-08-04T10:15:16.927Z,61.60
2018-08-04T10:17:45.371Z,61.80
2018-08-04T10:20:13.874Z,61.50
2018-08-04T10:22:42.265Z,61.70
2018-08-04T10:25:12.179Z,63.70
2018-08-04T10:27:40.583Z,65.20
2018-08-04T10:30:10.601Z,61.50
2018-08-04T10:32:39.170Z,61.60
2018-08-04T10:35:08.107Z,60.80
2018-08-04T10:37:38.487Z,64.10
2018-08-04T10:40:07.219Z,58.30
2018-08-04T10:42:35.702Z,58.30
2018-08-04T10:45:04.720Z,58.30
2018-08-04T10:47:33.097Z,57.20
2018-08-04T10:50:01.499Z,57.90
2018-08-04T10:52:29.945Z,59.40
2018-08-04T10:54:58.326Z,59.30
2018-08-04T10:57:26.748Z,59.10
2018-08-04T10:59:55.234Z,59.80
2018-08-04T11:02:23.628Z,57.70
2018-08-04T11:04:52.012Z,56.80
2018-08-04T11:07:20.451Z,54.60
2018-08-04T11:09:48.816Z,55.10
2018-08-04T11:12:17.132Z,55.30
2018-08-04T11:14:45.432Z,55.50
2018-08-04T11:17:13.898Z,54.10
2018-08-04T11:19:42.336Z,53.50
2018-08-04T11:22:11.562Z,54.40
2018-08-04T11:24:39.969Z,54.20
2018-08-04T11:27:08.342Z,53.60
2018-08-04T11:29:36.707Z,52.60
2018-08-04T11:32:05.075Z,52.60
2018-08-04T11:34:33.534Z,52.90
2018-08-04T11:37:01.916Z,53.10
2018-08-04T11:39:30.282Z,52.90
2018-08-04T11:41:58.721Z,52.40
2018-08-04T11:44:27.145Z,52.80
2018-08-04T11:46:55.552Z,52.00
2018-08-04T11:49:24.025Z,52.80
2018-08-04T11:51:52.499Z,52.80
2018-08-04T11:54:20.887Z,53.90
2018-08-04T11:56:49.408Z,52.20
2018-08-04T11:59:17.718Z,52.40
2018-08-04T12:01:46.187Z,52.20
2018-08-04T12:04:14.624Z,52.20
2018-08-04T12:06:43.024Z,51.60
2018-08-04T12:09:13.040Z,53.10
2018-08-04T12:11:41.999Z,54.20
2018-08-04T12:14:10.836Z,56.10
2018-08-04T12:16:39.559Z,56.60
2018-08-04T12:19:07.959Z,57.70
2018-08-04T12:21:36.341Z,58.60
2018-08-04T12:24:04.800Z,57.40
2018-08-04T12:26:33.147Z,59.50
2018-08-04T12:29:01.600Z,58.50
2018-08-04T12:31:30.094Z,56.50
2018-08-04T12:33:58.440Z,57.10
2018-08-04T12:36:26.777Z,58.10
2018-08-04T12:38:55.126Z,57.20
2018-08-04T12:41:23.550Z,57.20
2018-08-04T12:43:52.014Z,56.60
2018-08-04T12:46:20.447Z,55.20
2018-08-04T12:48:48.795Z,54.30
2018-08-04T12:51:17.200Z,54.50
2018-08-04T12:53:45.537Z,54.60
2018-08-04T12:56:13.906Z,54.40
2018-08-04T12:58:42.364Z,54.40
2018-08-04T13:01:10.848Z,54.10
2018-08-04T13:03:39.365Z,54.20
2018-08-04T13:06:07.758Z,53.80
2018-08-04T13:08:36.200Z,53.80
2018-08-04T13:11:04.522Z,53.30
2018-08-04T13:16:00.995Z,53.00
2018-08-04T13:18:29.369Z,52.40
2018-08-04T13:20:57.743Z,52.60
2018-08-04T13:23:26.177Z,52.90
2018-08-04T13:25:54.581Z,52.60
2018-08-04T13:28:22.994Z,52.80
2018-08-04T13:30:51.325Z,52.00
2018-08-04T13:33:20.254Z,52.40
2018-08-04T13:35:48.879Z,52.60
2018-08-04T13:38:17.271Z,52.90
2018-08-04T13:40:45.654Z,52.10
2018-08-04T13:43:14.066Z,52.30
2018-08-04T13:45:42.474Z,52.50
2018-08-04T13:48:10.906Z,51.80
2018-08-04T13:50:39.321Z,52.50
2018-08-04T13:53:07.730Z,51.60
2018-08-04T13:55:36.132Z,52.10
2018-08-04T13:58:04.473Z,52.20
2018-08-04T14:00:32.953Z,52.50
2018-08-04T14:03:01.360Z,51.80
2018-08-04T14:05:29.768Z,52.20
2018-08-04T14:07:58.191Z,51.90
2018-08-04T14:10:26.562Z,55.00
2018-08-04T14:12:55.017Z,55.30
2018-08-04T14:15:23.384Z,57.10
2018-08-04T14:17:51.814Z,56.30
2018-08-04T14:20:20.225Z,55.00
2018-08-04T14:22:48.643Z,55.30
2018-08-04T14:25:17.003Z,56.20
2018-08-04T14:27:45.478Z,56.60
2018-08-04T14:30:13.895Z,56.10
2018-08-04T14:35:16.785Z,56.80
2018-08-04T14:37:45.245Z,56.70
2018-08-04T14:40:13.598Z,55.80
2018-08-04T14:42:42.132Z,54.50
2018-08-04T14:45:10.531Z,55.10
2018-08-04T14:47:38.883Z,54.40
2018-08-04T14:50:07.301Z,55.00
2018-08-04T14:52:35.692Z,54.60
2018-08-04T14:55:04.126Z,55.30
2018-08-04T14:57:32.536Z,55.60
2018-08-04T15:00:00.987Z,54.30
2018-08-04T15:02:29.430Z,54.50
2018-08-04T15:04:57.858Z,54.70
2018-08-04T15:07:26.364Z,54.10
2018-08-04T15:09:54.816Z,54.20
2018-08-04T15:12:23.191Z,55.00
2018-08-04T15:14:51.657Z,54.70
2018-08-04T15:17:20.221Z,56.00
2018-08-04T15:19:48.662Z,56.10
2018-08-04T15:22:17.119Z,55.40
2018-08-04T15:24:45.572Z,55.30
2018-08-04T15:27:13.967Z,56.10
2018-08-04T15:29:42.361Z,56.60
2018-08-04T15:32:10.824Z,56.30
2018-08-04T15:34:39.151Z,56.60
2018-08-04T15:37:07.531Z,56.20
2018-08-04T15:39:35.970Z,56.10
2018-08-04T15:42:04.445Z,56.20
2018-08-04T15:44:32.867Z,56.80
2018-08-04T15:47:01.249Z,56.20
2018-08-04T15:49:29.627Z,57.10
2018-08-04T15:51:58.073Z,56.90
2018-08-04T15:54:26.513Z,56.90
2018-08-04T15:56:54.935Z,56.50
2018-08-04T15:59:23.348Z,56.20
2018-08-04T16:01:51.777Z,56.10
2018-08-04T16:04:20.277Z,57.00
2018-08-04T16:06:49.016Z,58.10
2018-08-04T16:09:23.786Z,58.40
2018-08-04T16:11:52.116Z,58.20
2018-08-04T16:14:20.539Z,59.00
2018-08-04T16:16:48.995Z,58.10
2018-08-04T16:19:17.448Z,58.00
2018-08-04T16:21:45.840Z,57.80
2018-08-04T16:24:14.294Z,57.20
2018-08-04T16:26:42.635Z,57.10
2018-08-04T16:29:11.122Z,58.10
2018-08-04T16:31:39.476Z,57.50
2018-08-04T16:34:07.970Z,57.60
2018-08-04T16:36:40.779Z,58.20
2018-08-04T16:39:10.272Z,57.50
2018-08-04T16:41:38.929Z,56.70
2018-08-04T16:44:07.350Z,57.80
2018-08-04T16:46:35.779Z,58.50
2018-08-04T16:49:04.198Z,57.90
2018-08-04T16:51:32.609Z,57.60
2018-08-04T16:54:01.037Z,58.00
2018-08-04T16:56:29.387Z,58.50
2018-08-04T16:58:57.834Z,58.40
2018-08-04T17:01:26.187Z,59.20
2018-08-04T17:03:54.910Z,59.20
2018-08-04T17:06:23.294Z,59.70
2018-08-04T17:08:51.748Z,58.30
2018-08-04T17:11:20.130Z,59.00
2018-08-04T17:13:48.465Z,59.10
2018-08-04T17:16:16.820Z,58.70
2018-08-04T17:18:45.241Z,58.00
2018-08-04T17:21:13.682Z,59.40
2018-08-04T17:23:42.077Z,58.90
2018-08-04T17:26:10.543Z,59.20
2018-08-04T17:28:39.058Z,60.90
2018-08-04T17:31:07.564Z,63.10
2018-08-04T17:33:35.918Z,65.10
2018-08-04T17:36:04.347Z,66.30
2018-08-04T17:38:32.804Z,67.40
2018-08-04T17:41:01.217Z,67.90
2018-08-04T17:43:29.651Z,68.90
2018-08-04T17:45:58.015Z,70.20
2018-08-04T17:48:26.486Z,71.00
2018-08-04T17:50:54.880Z,72.40
2018-08-04T17:53:23.223Z,73.10
2018-08-04T17:55:51.815Z,73.80
2018-08-04T17:58:20.192Z,74.20
2018-08-04T18:00:48.784Z,74.70
2018-08-04T18:03:17.230Z,75.10
2018-08-04T18:05:45.641Z,75.20
2018-08-04T18:08:14.057Z,75.70
2018-08-04T18:10:42.561Z,75.80
2018-08-04T18:13:11.002Z,76.70
2018-08-04T18:15:39.433Z,77.40
2018-08-04T18:18:07.784Z,78.00
2018-08-04T18:20:36.149Z,78.40
2018-08-04T18:23:04.612Z,79.00
2018-08-04T18:25:33.014Z,78.90
2018-08-04T18:28:01.389Z,79.40
2018-08-04T18:30:29.739Z,79.00
2018-08-04T18:32:58.384Z,80.00
2018-08-04T18:35:26.900Z,80.30
2018-08-04T18:37:55.373Z,80.60
2018-08-04T18:40:23.732Z,81.00
2018-08-04T18:42:52.239Z,81.10
2018-08-04T18:45:20.599Z,81.40
2018-08-04T18:47:49.092Z,82.70
2018-08-04T18:50:17.467Z,81.20
2018-08-04T18:52:45.853Z,81.90
2018-08-04T18:55:14.217Z,82.50
2018-08-04T18:57:42.674Z,82.70
2018-08-04T19:00:11.179Z,83.20
2018-08-04T19:02:39.543Z,84.10
2018-08-04T19:05:07.997Z,84.40
2018-08-04T19:07:36.427Z,84.80
2018-08-04T19:10:04.859Z,85.50
2018-08-04T19:12:33.288Z,85.70
2018-08-04T19:15:01.765Z,85.90
2018-08-04T19:17:30.156Z,86.00
2018-08-04T19:19:58.584Z,86.60
2018-08-04T19:22:27.005Z,87.20
2018-08-04T19:24:55.349Z,87.90
2018-08-04T19:27:23.777Z,88.20
2018-08-04T19:29:52.315Z,88.60
2018-08-04T19:32:20.702Z,88.00
2018-08-04T19:34:49.114Z,88.60
2018-08-04T19:37:17.528Z,89.00
2018-08-04T19:39:45.883Z,89.50
2018-08-04T19:42:14.247Z,90.00
2018-08-04T19:44:42.772Z,90.30
2018-08-04T19:47:11.217Z,90.30
2018-08-04T19:49:39.645Z,90.30
2018-08-04T19:52:07.995Z,90.60
2018-08-04T19:54:36.311Z,90.50
2018-08-04T19:57:04.813Z,90.50
2018-08-04T19:59:33.241Z,89.20
2018-08-04T20:02:01.615Z,89.40
2018-08-04T20:04:30.051Z,88.80
2018-08-04T20:06:58.427Z,88.40
2018-08-04T20:09:26.784Z,88.80
2018-08-04T20:11:55.166Z,89.40
2018-08-04T20:14:23.579Z,89.70
2018-08-04T20:16:52.001Z,89.70
2018-08-04T20:19:20.363Z,90.20
2018-08-04T20:21:48.793Z,90.60
2018-08-04T20:24:17.170Z,90.90
2018-08-04T20:26:45.637Z,91.10
2018-08-04T20:29:14.046Z,91.30
2018-08-04T20:31:42.502Z,91.40
2018-08-04T20:34:10.942Z,91.50
2018-08-04T20:36:39.294Z,91.60
2018-08-04T20:39:09.365Z,91.80
2018-08-04T20:41:37.786Z,92.00
2018-08-04T20:44:06.324Z,92.10
2018-08-04T20:46:34.707Z,92.30
2018-08-04T20:49:03.118Z,92.70
2018-08-04T20:51:31.542Z,92.70
2018-08-04T20:54:00.047Z,92.70
2018-08-04T20:56:28.457Z,92.80
2018-08-04T20:58:56.807Z,93.10
2018-08-04T21:01:36.453Z,93.20
2018-08-04T21:04:04.913Z,93.60
2018-08-04T21:06:33.422Z,93.50
2018-08-04T21:09:01.718Z,93.60
2018-08-04T21:11:30.072Z,93.60
2018-08-04T21:13:58.532Z,93.80
2018-08-04T21:16:26.927Z,93.80
2018-08-04T21:18:55.435Z,94.10
2018-08-04T21:21:23.847Z,94.30
2018-08-04T21:23:52.268Z,94.60
2018-08-04T21:26:20.751Z,94.80
2018-08-04T21:28:49.352Z,94.90
2018-08-04T21:31:17.740Z,95.10
2018-08-04T21:33:46.120Z,95.20
2018-08-04T21:36:14.497Z,95.50
2018-08-04T21:38:42.867Z,95.40
2018-08-04T21:41:11.258Z,95.60
2018-08-04T21:43:39.761Z,95.70
2018-08-04T21:46:08.148Z,95.80
2018-08-04T21:48:36.553Z,95.90
2018-08-04T21:51:04.983Z,95.90
2018-08-04T21:53:33.351Z,96.00
2018-08-04T21:56:01.769Z,96.00
2018-08-04T21:58:30.129Z,96.10
2018-08-04T22:01:03.851Z,96.20
2018-08-04T22:03:32.247Z,96.40
2018-08-04T22:06:00.663Z,96.70
2018-08-04T22:08:40.331Z,96.90
2018-08-04T22:11:08.640Z,97.10
2018-08-04T22:13:37.661Z,97.80
2018-08-04T22:16:06.213Z,97.60
2018-08-04T22:18:34.657Z,97.70
2018-08-04T22:21:03.021Z,97.60
2018-08-04T22:23:31.718Z,97.90
2018-08-04T22:26:00.138Z,98.00
2018-08-04T22:28:28.605Z,97.80
2018-08-04T22:30:56.945Z,98.00
2018-08-04T22:33:25.365Z,98.10
2018-08-04T22:35:53.819Z,98.20
2018-08-04T22:38:22.307Z,98.20
2018-08-04T22:40:50.716Z,98.30
2018-08-04T22:43:19.168Z,98.40
2018-08-04T22:46:06.458Z,98.20
2018-08-04T22:48:35.269Z,98.10
2018-08-04T22:51:03.743Z,98.10
2018-08-04T22:53:32.630Z,98.20
2018-08-04T22:56:01.081Z,98.30
2018-08-04T22:58:29.525Z,98.20
2018-08-04T23:00:57.991Z,98.30
2018-08-04T23:03:26.390Z,98.50
2018-08-04T23:05:54.976Z,98.40
2018-08-04T23:08:23.336Z,98.20
2018-08-04T23:10:51.718Z,97.90
2018-08-04T23:13:20.143Z,98.00
2018-08-04T23:15:48.624Z,98.00
2018-08-04T23:18:16.951Z,98.30
2018-08-04T23:20:45.379Z,98.30
2018-08-04T23:23:14.371Z,98.40
2018-08-04T23:25:42.765Z,98.50
2018-08-04T23:28:11.310Z,98.70
2018-08-04T23:30:39.693Z,98.70
2018-08-04T23:33:08.135Z,98.40
2018-08-04T23:35:36.528Z,98.40
2018-08-04T23:38:04.975Z,98.60
2018-08-04T23:40:33.410Z,98.70
2018-08-04T23:43:02.009Z,98.60
2018-08-04T23:45:30.423Z,99.00
2018-08-04T23:47:58.774Z,99.10
2018-08-04T23:50:27.133Z,99.30
2018-08-04T23:52:55.481Z,99.40
2018-08-04T23:55:23.966Z,99.30
2018-08-04T23:57:52.390Z,99.40
